Flight Track Log - Related Links

Times and Time Zones

All times are in EDT time to prevent confusion due to time zone crossing. See the N904BC flight status page for this flight to view local times or setup timezone preferences in your user account.

Time Position Orientation Groundspeed Altitude Reporting Facility
EDT Latitude Longitude Course Direction KTS MPH feet Rate Location/Type
Wed 09:37:10 PM 45.9061 -89.7233 134° Southeast 110 127 2,700  Level Minneapolis Center
Wed 09:38:12 PM 45.8800 -89.6847 134° Southeast 130 150 3,500 774 Climbing Minneapolis Center
Wed 09:39:14 PM 45.8483 -89.6511 144° Southeast 136 157 4,300 732 Climbing Minneapolis Center
Wed 09:40:15 PM 45.8097 -89.6264 156° South 147 169 5,000 732 Climbing Minneapolis Center
Wed 09:41:17 PM 45.7747 -89.5903 144° Southeast 151 174 5,800 871 Climbing Minneapolis Center
Wed 09:42:19 PM 45.7319 -89.5478 145° Southeast 154 177 6,800 871 Climbing Minneapolis Center
Wed 09:43:21 PM 45.6950 -89.5161 149° Southeast 156 180 7,600 780 Climbing Minneapolis Center
Wed 09:44:22 PM 45.6583 -89.4833 148° Southeast 155 178 8,400 780 Climbing Minneapolis Center
Wed 09:45:24 PM 45.6203 -89.4514 150° Southeast 158 182 9,200 774 Climbing Minneapolis Center
Wed 09:46:26 PM 45.5786 -89.4278 158° South 160 184 10,000 780 Climbing Minneapolis Center
Wed 09:47:27 PM 45.5372 -89.4011 156° South 163 188 10,800 732 Climbing Minneapolis Center
Wed 09:48:29 PM 45.4944 -89.3764 158° South 164 189 11,500 823 Climbing Minneapolis Center
Wed 09:49:31 PM 45.4436 -89.3494 160° South 163 188 12,500 878 Climbing Minneapolis Center
Wed 09:50:32 PM 45.4022 -89.3261 158° South 161 185 13,300 780 Climbing Minneapolis Center
Wed 09:51:34 PM 45.3611 -89.3050 160° South 158 182 14,100 732 Climbing Minneapolis Center
Wed 09:52:35 PM 45.3200 -89.2828 159° South 158 182 14,800 439 Climbing Minneapolis Center
Wed 09:53:37 PM 45.2758 -89.2592 159° South 168 193 15,000 98 Climbing Minneapolis Center
Wed 09:54:38 PM 45.2267 -89.2322 159° South 186 214 15,000  Level Minneapolis Center
Wed 09:55:40 PM 45.1764 -89.2031 158° South 194 223 15,000  Level Minneapolis Center
Wed 09:56:42 PM 45.1261 -89.1722 157° South 195 224 15,000  Level Minneapolis Center
Wed 09:57:43 PM 45.0642 -89.1381 159° South 199 229 15,000  Level Minneapolis Center
Wed 09:58:45 PM 45.0136 -89.1108 159° South 194 223 15,000  Level Minneapolis Center
Wed 09:59:46 PM 44.9611 -89.0836 160° South 198 228 15,000  Level Minneapolis Center
Wed 10:00:48 PM 44.9100 -89.0542 158° South 198 228 15,000  Level Minneapolis Center
Wed 10:01:49 PM 44.8589 -89.0244 158° South 199 229 15,000  Level Minneapolis Center
Wed 10:02:51 PM 44.8094 -88.9972 159° South 193 222 15,000  Level Minneapolis Center
Wed 10:03:52 PM 44.7600 -88.9669 156° South 193 222 15,000  Level Minneapolis Center
Wed 10:04:54 PM 44.7092 -88.9400 159° South 195 224 15,000  Level Minneapolis Center
Wed 10:05:55 PM 44.6511 -88.9089 159° South 191 220 15,000  Level Minneapolis Center
Wed 10:06:57 PM 44.5997 -88.8828 160° South 195 224 15,000  Level Minneapolis Center
Wed 10:07:58 PM 44.5492 -88.8536 158° South 195 224 15,000  Level Minneapolis Center
Wed 10:09:00 PM 44.4997 -88.8289 160° South 191 220 15,000  Level Minneapolis Center
Wed 10:10:01 PM 44.4489 -88.8014 159° South 194 223 15,000  Level Minneapolis Center
Wed 10:11:03 PM 44.3981 -88.7783 162° South 192 221 15,000  Level Minneapolis Center
Wed 10:12:04 PM 44.3469 -88.7508 159° South 194 223 15,000  Level Minneapolis Center
Wed 10:13:06 PM 44.2961 -88.7225 158° South 195 224 15,000  Level Minneapolis Center
Wed 10:14:07 PM 44.2364 -88.6861 156° South 200 230 15,000  Level Minneapolis Center
Wed 10:15:09 PM 44.1864 -88.6567 157° South 197 227 15,000  Level Minneapolis Center
Wed 10:16:10 PM 44.1425 -88.6356 161° South 198 228 15,000  Level Minneapolis Center
Wed 10:17:08 PM 44.0828 -88.6067 161° South 197 227 15,000  Level Chicago Center
Wed 10:18:09 PM 44.0319 -88.5758 156° South 197 227 15,000  Level Chicago Center
Wed 10:19:11 PM 43.9828 -88.5425 154° Southeast 196 226 15,000 -146 Level Chicago Center
Wed 10:20:12 PM 43.9317 -88.5072 154° Southeast 200 230 14,700 -541 Descending Chicago Center
Wed 10:21:13 PM 43.8772 -88.4703 154° Southeast 214 246 13,900 -836 Descending Chicago Center
Wed 10:22:14 PM 43.8208 -88.4314 154° Southeast 224 258 13,000 -885 Descending Chicago Center
Wed 10:23:15 PM 43.7656 -88.3869 150° Southeast 227 261 12,100 -934 Descending Chicago Center
Wed 10:24:16 PM 43.7033 -88.3714 170° South 226 260 11,100 -541 Descending Chicago Center
Wed 10:25:17 PM 43.6439 -88.3608 173° South 219 252 11,000 -49 Descending Chicago Center
Wed 10:26:18 PM 43.5903 -88.3408 165° South 202 232 11,000  Level Chicago Center
Wed 10:27:19 PM 43.5389 -88.3206 164° South 194 223 11,000  Level Chicago Center
Wed 10:28:21 PM 43.4869 -88.3039 167° South 189 217 11,000  Level Chicago Center
Wed 10:29:22 PM 43.4344 -88.2908 170° South 189 217 11,000  Level Chicago Center
Wed 10:30:23 PM 43.3739 -88.2744 169° South 188 216 11,000  Level Chicago Center
Wed 10:31:24 PM 43.3225 -88.2547 164° South 190 219 11,000  Level Chicago Center
Wed 10:32:25 PM 43.2725 -88.2400 168° South 185 213 11,000  Level Chicago Center
Wed 10:33:26 PM 43.2214 -88.2242 167° South 185 213 11,000  Level Chicago Center
Wed 10:34:27 PM 43.1731 -88.1992 159° South 187 215 11,000  Level Chicago Center
Wed 10:35:28 PM 43.1217 -88.2019 182° South 183 211 11,000  Level Chicago Center
Wed 10:36:29 PM 43.0703 -88.1886 169° South 188 216 11,000 -146 Level Chicago Center
Wed 10:37:31 PM 43.0211 -88.1678 163° South 186 214 10,700 -439 Descending Chicago Center
Wed 10:38:32 PM 42.9658 -88.1511 168° South 201 231 10,100 -639 Descending Chicago Center
Wed 10:39:33 PM 42.9078 -88.1361 169° South 209 241 9,400 -639 Descending Chicago Center
Wed 10:40:34 PM 42.8508 -88.1183 167° South 210 242 8,800 -639 Descending Chicago Center
Wed 10:41:35 PM 42.7953 -88.0975 165° South 208 239 8,100 -738 Descending Chicago Center
Wed 10:42:36 PM 42.7303 -88.0783 168° South 205 236 7,300 -787 Descending Chicago Center
Wed 10:43:37 PM 42.6733 -88.0661 171° South 207 238 6,500 -738 Descending Chicago Center
Wed 10:44:38 PM 42.6175 -88.0486 167° South 205 236 5,800 -732 Descending Chicago Center
Wed 10:45:40 PM 42.5622 -88.0311 167° South 204 235 5,000 -780 Descending Chicago Center
Wed 10:46:41 PM 42.5072 -88.0167 169° South 201 231 4,200 -492 Descending Chicago Center
Wed 10:47:42 PM 42.4556 -87.9944 162° South 197 227 4,000 -148 Descending Chicago Center
Wed 10:48:43 PM 42.4078 -87.9864 173° South 180 207 3,900 -246 Descending Chicago Center
Wed 10:49:44 PM 42.3606 -87.9889 182° South 171 197 3,500 -390 Descending Chicago Center
Wed 10:50:46 PM 42.3097 -88.0008 190° South 176 203 3,100 -293 Descending Chicago Center
Wed 10:51:47 PM 42.2650 -87.9914 171° South 173 199 2,900 -344 Descending Chicago Center
Wed 10:52:48 PM 42.2239 -87.9572 148° Southeast 174 200 2,400 -443 Descending Chicago Center
Wed 10:53:49 PM 42.1814 -87.9394 163° South 169 194 2,000 -492 Descending Chicago Center
Wed 10:54:50 PM 42.1453 -87.9181 156° South 154 177 1,400 -590 Descending Chicago Center
Wed 10:56:00 PM 42.1143 -87.9015 160° South  Level Estimated

Login

Don't have an account? Register now (free) for customized features, flight alerts, and more!